sensor_id;sensor_type;location;lat;lon;timestamp;pressure;altitude;pressure_sealevel;temperature;humidity
72024;BME280;59889;50.700;5.440;2024-03-29T00:00:14;97682.65;;;20.99;33.38
72024;BME280;59889;50.700;5.440;2024-03-29T00:02:38;97690.64;;;21.05;33.33
72024;BME280;59889;50.700;5.440;2024-03-29T00:05:03;97688.75;;;20.93;33.45
72024;BME280;59889;50.700;5.440;2024-03-29T00:07:28;97678.06;;;21.07;33.31
72024;BME280;59889;50.700;5.440;2024-03-29T00:09:53;97682.66;;;21.17;33.45
72024;BME280;59889;50.700;5.440;2024-03-29T00:12:19;97674.16;;;21.01;33.35
72024;BME280;59889;50.700;5.440;2024-03-29T00:14:44;97676.14;;;20.97;33.42
72024;BME280;59889;50.700;5.440;2024-03-29T00:17:09;97679.38;;;21.07;33.56
72024;BME280;59889;50.700;5.440;2024-03-29T00:19:35;97681.01;;;20.99;33.40
72024;BME280;59889;50.700;5.440;2024-03-29T00:22:00;97681.94;;;20.97;33.42
72024;BME280;59889;50.700;5.440;2024-03-29T00:24:25;97682.83;;;21.26;33.38
72024;BME280;59889;50.700;5.440;2024-03-29T00:26:51;97683.90;;;21.09;33.28
72024;BME280;59889;50.700;5.440;2024-03-29T00:29:16;97683.00;;;21.10;33.54
72024;BME280;59889;50.700;5.440;2024-03-29T00:31:41;97669.12;;;20.93;33.45
72024;BME280;59889;50.700;5.440;2024-03-29T00:34:06;97665.01;;;21.21;33.41
72024;BME280;59889;50.700;5.440;2024-03-29T00:36:32;97658.21;;;21.13;33.53
72024;BME280;59889;50.700;5.440;2024-03-29T00:38:57;97651.82;;;21.16;33.48
72024;BME280;59889;50.700;5.440;2024-03-29T00:41:22;97638.23;;;20.99;33.38
72024;BME280;59889;50.700;5.440;2024-03-29T00:43:48;97650.04;;;21.27;33.35
72024;BME280;59889;50.700;5.440;2024-03-29T00:46:13;97662.76;;;20.97;33.40
72024;BME280;59889;50.700;5.440;2024-03-29T00:48:38;97666.43;;;20.93;33.47
72024;BME280;59889;50.700;5.440;2024-03-29T00:51:04;97677.09;;;20.86;33.54
72024;BME280;59889;50.700;5.440;2024-03-29T00:53:29;97686.30;;;21.02;33.36
72024;BME280;59889;50.700;5.440;2024-03-29T00:55:54;97694.41;;;21.15;33.47
72024;BME280;59889;50.700;5.440;2024-03-29T00:58:19;97686.05;;;21.26;33.38
72024;BME280;59889;50.700;5.440;2024-03-29T01:00:45;97690.24;;;20.94;33.41
72024;BME280;59889;50.700;5.440;2024-03-29T01:03:10;97698.01;;;20.79;33.60
72024;BME280;59889;50.700;5.440;2024-03-29T01:05:35;97705.19;;;20.90;33.49
72024;BME280;59889;50.700;5.440;2024-03-29T01:08:01;97699.30;;;21.18;33.45
72024;BME280;59889;50.700;5.440;2024-03-29T01:10:26;97705.42;;;21.21;33.40
72024;BME280;59889;50.700;5.440;2024-03-29T01:12:51;97699.66;;;20.90;33.48
72024;BME280;59889;50.700;5.440;2024-03-29T01:15:17;97697.82;;;20.91;33.47
72024;BME280;59889;50.700;5.440;2024-03-29T01:17:42;97702.38;;;20.92;33.44
72024;BME280;59889;50.700;5.440;2024-03-29T01:20:09;97705.50;;;20.90;33.48
72024;BME280;59889;50.700;5.440;2024-03-29T01:22:32;97706.65;;;21.02;33.34
72024;BME280;59889;50.700;5.440;2024-03-29T01:24:58;97701.60;;;20.94;33.42
72024;BME280;59889;50.700;5.440;2024-03-29T01:27:23;97703.87;;;21.14;33.46
72024;BME280;59889;50.700;5.440;2024-03-29T01:29:48;97687.62;;;21.15;33.45
72024;BME280;59889;50.700;5.440;2024-03-29T01:32:14;97682.16;;;20.99;33.37
72024;BME280;59889;50.700;5.440;2024-03-29T01:34:39;97685.17;;;20.94;33.42
72024;BME280;59889;50.700;5.440;2024-03-29T01:37:04;97684.28;;;21.25;33.34
72024;BME280;59889;50.700;5.440;2024-03-29T01:39:29;97693.37;;;20.66;33.46
72024;BME280;59889;50.700;5.440;2024-03-29T01:41:55;97690.94;;;21.04;33.56
72024;BME280;59889;50.700;5.440;2024-03-29T01:44:20;97683.17;;;20.85;33.54
72024;BME280;59889;50.700;5.440;2024-03-29T01:46:46;97689.74;;;20.91;33.45
72024;BME280;59889;50.700;5.440;2024-03-29T01:49:11;97688.04;;;20.95;33.41
72024;BME280;59889;50.700;5.440;2024-03-29T01:51:37;97690.92;;;21.24;33.34
72024;BME280;59889;50.700;5.440;2024-03-29T01:54:01;97697.50;;;21.01;33.60
72024;BME280;59889;50.700;5.440;2024-03-29T01:56:27;97703.24;;;20.74;33.63
72024;BME280;59889;50.700;5.440;2024-03-29T01:58:53;97708.41;;;20.96;33.39
72024;BME280;59889;50.700;5.440;2024-03-29T02:01:18;97707.68;;;21.01;33.58
72024;BME280;59889;50.700;5.440;2024-03-29T02:03:42;97712.84;;;21.03;33.55
72024;BME280;59889;50.700;5.440;2024-03-29T02:06:08;97715.11;;;20.79;33.54
72024;BME280;59889;50.700;5.440;2024-03-29T02:08:33;97715.51;;;20.68;33.70
72024;BME280;59889;50.700;5.440;2024-03-29T02:10:59;97713.41;;;21.02;33.58
72024;BME280;59889;50.700;5.440;2024-03-29T02:13:24;97721.76;;;21.09;33.48
72024;BME280;59889;50.700;5.440;2024-03-29T02:15:49;97729.84;;;20.77;33.60
72024;BME280;59889;50.700;5.440;2024-03-29T02:18:14;97719.90;;;21.01;33.58
72024;BME280;59889;50.700;5.440;2024-03-29T02:20:40;97728.98;;;20.73;33.66
72024;BME280;59889;50.700;5.440;2024-03-29T02:23:07;97729.66;;;20.90;33.45
72024;BME280;59889;50.700;5.440;2024-03-29T02:25:30;97725.93;;;20.69;33.40
72024;BME280;59889;50.700;5.440;2024-03-29T02:27:56;97724.14;;;20.85;33.48
72024;BME280;59889;50.700;5.440;2024-03-29T02:30:21;97728.29;;;21.06;33.50
72024;BME280;59889;50.700;5.440;2024-03-29T02:32:46;97717.81;;;21.06;33.51
72024;BME280;59889;50.700;5.440;2024-03-29T02:35:12;97726.18;;;20.89;33.43
72024;BME280;59889;50.700;5.440;2024-03-29T02:37:37;97716.24;;;21.06;33.54
72024;BME280;59889;50.700;5.440;2024-03-29T02:40:02;97713.13;;;20.61;33.47
72024;BME280;59889;50.700;5.440;2024-03-29T02:42:28;97705.93;;;20.77;33.59
72024;BME280;59889;50.700;5.440;2024-03-29T02:44:53;97713.26;;;20.75;33.62
72024;BME280;59889;50.700;5.440;2024-03-29T02:47:18;97705.51;;;20.95;33.65
72024;BME280;59889;50.700;5.440;2024-03-29T02:49:43;97700.16;;;20.74;33.62
72024;BME280;59889;50.700;5.440;2024-03-29T02:52:09;97697.27;;;21.13;33.47
72024;BME280;59889;50.700;5.440;2024-03-29T02:54:34;97699.14;;;20.96;33.65
72024;BME280;59889;50.700;5.440;2024-03-29T02:56:59;97690.08;;;20.71;33.64
72024;BME280;59889;50.700;5.440;2024-03-29T02:59:24;97676.22;;;20.92;33.65
72024;BME280;59889;50.700;5.440;2024-03-29T03:01:50;97682.12;;;20.89;33.68
72024;BME280;59889;50.700;5.440;2024-03-29T03:04:16;97678.32;;;20.99;33.59
72024;BME280;59889;50.700;5.440;2024-03-29T03:06:40;97671.55;;;20.72;33.61
72024;BME280;59889;50.700;5.440;2024-03-29T03:09:06;97670.93;;;20.94;33.65
72024;BME280;59889;50.700;5.440;2024-03-29T03:11:31;97671.02;;;20.78;33.54
72024;BME280;59889;50.700;5.440;2024-03-29T03:13:56;97673.86;;;20.69;33.66
72024;BME280;59889;50.700;5.440;2024-03-29T03:16:21;97670.82;;;20.66;33.71
72024;BME280;59889;50.700;5.440;2024-03-29T03:18:47;97670.36;;;20.73;33.61
72024;BME280;59889;50.700;5.440;2024-03-29T03:21:12;97670.38;;;20.81;33.52
72024;BME280;59889;50.700;5.440;2024-03-29T03:23:37;97664.90;;;20.70;33.64
72024;BME280;59889;50.700;5.440;2024-03-29T03:26:03;97657.89;;;20.89;33.69
72024;BME280;59889;50.700;5.440;2024-03-29T03:28:28;97655.42;;;20.93;33.65
72024;BME280;59889;50.700;5.440;2024-03-29T03:30:53;97652.83;;;20.64;33.72
72024;BME280;59889;50.700;5.440;2024-03-29T03:33:20;97652.25;;;20.91;33.65
72024;BME280;59889;50.700;5.440;2024-03-29T03:35:45;97637.49;;;20.94;33.63
72024;BME280;59889;50.700;5.440;2024-03-29T03:38:09;97634.63;;;20.81;33.51
72024;BME280;59889;50.700;5.440;2024-03-29T03:40:35;97626.04;;;20.77;33.55
72024;BME280;59889;50.700;5.440;2024-03-29T03:43:00;97632.24;;;20.70;33.62
72024;BME280;59889;50.700;5.440;2024-03-29T03:45:25;97637.00;;;20.96;33.59
72024;BME280;59889;50.700;5.440;2024-03-29T03:47:50;97630.48;;;20.76;33.57
72024;BME280;59889;50.700;5.440;2024-03-29T03:50:16;97632.88;;;20.75;33.55
72024;BME280;59889;50.700;5.440;2024-03-29T03:52:41;97636.25;;;20.69;33.65
72024;BME280;59889;50.700;5.440;2024-03-29T03:55:07;97623.03;;;20.72;33.60
72024;BME280;59889;50.700;5.440;2024-03-29T03:57:32;97619.31;;;20.73;33.57
72024;BME280;59889;50.700;5.440;2024-03-29T03:59:57;97614.65;;;20.70;33.62
72024;BME280;59889;50.700;5.440;2024-03-29T04:02:22;97612.94;;;21.02;33.50
72024;BME280;59889;50.700;5.440;2024-03-29T04:04:48;97619.64;;;20.73;33.58
72024;BME280;59889;50.700;5.440;2024-03-29T04:07:13;97622.97;;;20.71;33.61
72024;BME280;59889;50.700;5.440;2024-03-29T04:09:38;97631.17;;;20.93;33.64
72024;BME280;59889;50.700;5.440;2024-03-29T04:12:04;97637.63;;;20.68;33.64
72024;BME280;59889;50.700;5.440;2024-03-29T04:14:29;97627.46;;;20.68;33.64
72024;BME280;59889;50.700;5.440;2024-03-29T04:16:54;97631.27;;;21.06;33.49
72024;BME280;59889;50.700;5.440;2024-03-29T04:19:19;97616.76;;;20.95;33.59
72024;BME280;59889;50.700;5.440;2024-03-29T04:21:45;97616.06;;;20.91;33.64
72024;BME280;59889;50.700;5.440;2024-03-29T04:24:10;97616.43;;;20.65;33.66
72024;BME280;59889;50.700;5.440;2024-03-29T04:26:35;97616.97;;;20.84;33.73
72024;BME280;59889;50.700;5.440;2024-03-29T04:29:00;97619.05;;;20.85;33.71
72024;BME280;59889;50.700;5.440;2024-03-29T04:31:26;97631.53;;;20.85;33.76
72024;BME280;59889;50.700;5.440;2024-03-29T04:33:51;97627.21;;;20.57;33.79
72024;BME280;59889;50.700;5.440;2024-03-29T04:36:16;97627.63;;;20.85;33.72
72024;BME280;59889;50.700;5.440;2024-03-29T04:38:42;97616.56;;;20.82;33.76
72024;BME280;59889;50.700;5.440;2024-03-29T04:41:07;97606.97;;;20.85;33.72
72024;BME280;59889;50.700;5.440;2024-03-29T04:43:32;97603.80;;;20.57;33.77
72024;BME280;59889;50.700;5.440;2024-03-29T04:46:03;97606.12;;;20.81;33.79
72024;BME280;59889;50.700;5.440;2024-03-29T04:48:23;97601.88;;;20.82;33.76
72024;BME280;59889;50.700;5.440;2024-03-29T04:50:48;97602.88;;;20.88;33.65
72024;BME280;59889;50.700;5.440;2024-03-29T04:53:13;97603.75;;;20.83;33.72
72024;BME280;59889;50.700;5.440;2024-03-29T04:55:39;97619.92;;;20.85;33.72
72024;BME280;59889;50.700;5.440;2024-03-29T04:58:04;97628.86;;;20.82;33.75
72024;BME280;59889;50.700;5.440;2024-03-29T05:00:29;97615.76;;;20.62;33.69
72024;BME280;59889;50.700;5.440;2024-03-29T05:02:55;97593.12;;;20.80;33.75
72024;BME280;59889;50.700;5.440;2024-03-29T05:05:21;97575.69;;;21.06;33.47
72024;BME280;59889;50.700;5.440;2024-03-29T05:07:45;97585.66;;;20.94;33.88
72024;BME280;59889;50.700;5.440;2024-03-29T05:10:10;97598.97;;;20.82;33.91
72024;BME280;59889;50.700;5.440;2024-03-29T05:12:36;97592.74;;;20.91;33.62
72024;BME280;59889;50.700;5.440;2024-03-29T05:15:01;97582.67;;;20.68;33.43
72024;BME280;59889;50.700;5.440;2024-03-29T05:17:26;97579.93;;;20.90;33.31
72024;BME280;59889;50.700;5.440;2024-03-29T05:19:52;97575.18;;;20.87;33.21
72024;BME280;59889;50.700;5.440;2024-03-29T05:22:17;97572.23;;;20.84;33.11
72024;BME280;59889;50.700;5.440;2024-03-29T05:24:42;97553.79;;;20.78;33.15
72024;BME280;59889;50.700;5.440;2024-03-29T05:27:07;97575.31;;;20.61;33.02
72024;BME280;59889;50.700;5.440;2024-03-29T05:29:33;97583.67;;;20.46;33.44
72024;BME280;59889;50.700;5.440;2024-03-29T05:31:58;97594.89;;;20.85;33.69
72024;BME280;59889;50.700;5.440;2024-03-29T05:34:24;97608.05;;;20.91;33.67
72024;BME280;59889;50.700;5.440;2024-03-29T05:36:49;97604.23;;;20.70;34.02
72024;BME280;59889;50.700;5.440;2024-03-29T05:39:14;97596.21;;;20.77;34.02
72024;BME280;59889;50.700;5.440;2024-03-29T05:41:39;97595.83;;;20.59;33.97
72024;BME280;59889;50.700;5.440;2024-03-29T05:44:06;97597.22;;;20.81;34.17
72024;BME280;59889;50.700;5.440;2024-03-29T05:46:30;97596.24;;;20.32;34.23
72024;BME280;59889;50.700;5.440;2024-03-29T05:48:55;97601.79;;;20.76;34.27
72024;BME280;59889;50.700;5.440;2024-03-29T05:51:20;97605.27;;;20.77;34.27
72024;BME280;59889;50.700;5.440;2024-03-29T05:53:46;97608.75;;;20.77;34.30
72024;BME280;59889;50.700;5.440;2024-03-29T05:56:11;97622.83;;;20.72;34.42
72024;BME280;59889;50.700;5.440;2024-03-29T05:58:37;97629.18;;;20.84;34.60
72024;BME280;59889;50.700;5.440;2024-03-29T06:01:02;97623.91;;;20.72;34.52
72024;BME280;59889;50.700;5.440;2024-03-29T06:03:27;97625.30;;;20.60;34.75
72024;BME280;59889;50.700;5.440;2024-03-29T06:05:52;97631.03;;;20.52;34.56
72024;BME280;59889;50.700;5.440;2024-03-29T06:08:18;97631.82;;;21.11;34.69
72024;BME280;59889;50.700;5.440;2024-03-29T06:10:43;97623.69;;;20.72;34.59
72024;BME280;59889;50.700;5.440;2024-03-29T06:13:08;97624.96;;;20.59;34.77
72024;BME280;59889;50.700;5.440;2024-03-29T06:15:34;97623.40;;;20.65;34.70
72024;BME280;59889;50.700;5.440;2024-03-29T06:17:59;97628.21;;;20.78;34.61
72024;BME280;59889;50.700;5.440;2024-03-29T06:20:24;97631.49;;;20.78;34.63
72024;BME280;59889;50.700;5.440;2024-03-29T06:22:49;97629.12;;;20.64;34.79
72024;BME280;59889;50.700;5.440;2024-03-29T06:25:15;97625.08;;;20.76;34.67
72024;BME280;59889;50.700;5.440;2024-03-29T06:27:40;97631.96;;;20.81;34.56
72024;BME280;59889;50.700;5.440;2024-03-29T06:30:06;97634.33;;;20.84;34.55
72024;BME280;59889;50.700;5.440;2024-03-29T06:32:31;97637.65;;;20.59;34.58
72024;BME280;59889;50.700;5.440;2024-03-29T06:34:56;97643.00;;;20.83;34.58
72024;BME280;59889;50.700;5.440;2024-03-29T06:37:21;97640.28;;;20.85;34.56
72024;BME280;59889;50.700;5.440;2024-03-29T06:39:47;97639.48;;;20.80;34.62
72024;BME280;59889;50.700;5.440;2024-03-29T06:42:12;97647.28;;;20.85;34.54
72024;BME280;59889;50.700;5.440;2024-03-29T06:44:37;97639.33;;;20.80;34.62
72024;BME280;59889;50.700;5.440;2024-03-29T06:47:03;97633.32;;;20.52;34.68
72024;BME280;59889;50.700;5.440;2024-03-29T06:49:28;97640.11;;;20.72;34.73
72024;BME280;59889;50.700;5.440;2024-03-29T06:51:53;97638.46;;;20.56;34.61
72024;BME280;59889;50.700;5.440;2024-03-29T06:54:18;97635.01;;;20.74;34.72
72024;BME280;59889;50.700;5.440;2024-03-29T06:56:43;97643.64;;;20.84;34.62
72024;BME280;59889;50.700;5.440;2024-03-29T06:59:09;97640.76;;;20.78;34.68
72024;BME280;59889;50.700;5.440;2024-03-29T07:01:34;97645.44;;;20.54;34.70
72024;BME280;59889;50.700;5.440;2024-03-29T07:03:59;97650.68;;;20.79;34.65
72024;BME280;59889;50.700;5.440;2024-03-29T07:06:25;97655.49;;;20.63;34.87
72024;BME280;59889;50.700;5.440;2024-03-29T07:08:51;97664.45;;;20.95;34.77
72024;BME280;59889;50.700;5.440;2024-03-29T07:11:15;97669.38;;;20.69;34.83
72024;BME280;59889;50.700;5.440;2024-03-29T07:13:41;97678.89;;;20.71;34.80
72024;BME280;59889;50.700;5.440;2024-03-29T07:16:06;97684.20;;;20.61;34.90
72024;BME280;59889;50.700;5.440;2024-03-29T07:18:31;97688.81;;;20.70;34.84
72024;BME280;59889;50.700;5.440;2024-03-29T07:20:56;97684.16;;;20.74;34.77
72024;BME280;59889;50.700;5.440;2024-03-29T07:23:22;97676.29;;;20.93;34.83
72024;BME280;59889;50.700;5.440;2024-03-29T07:25:57;97669.88;;;20.74;34.77
72024;BME280;59889;50.700;5.440;2024-03-29T07:28:12;97670.34;;;20.65;34.90
72024;BME280;59889;50.700;5.440;2024-03-29T07:30:38;97672.26;;;20.69;34.83
72024;BME280;59889;50.700;5.440;2024-03-29T07:33:03;97670.24;;;20.28;35.04
72024;BME280;59889;50.700;5.440;2024-03-29T07:35:28;97666.67;;;20.63;34.88
72024;BME280;59889;50.700;5.440;2024-03-29T07:37:54;97659.97;;;20.62;34.95
72024;BME280;59889;50.700;5.440;2024-03-29T07:40:19;97664.36;;;20.68;34.85
72024;BME280;59889;50.700;5.440;2024-03-29T07:42:44;97670.81;;;20.60;34.97
72024;BME280;59889;50.700;5.440;2024-03-29T07:45:10;97675.52;;;20.60;34.99
72024;BME280;59889;50.700;5.440;2024-03-29T07:47:35;97675.74;;;20.57;35.02
72024;BME280;59889;50.700;5.440;2024-03-29T07:50:00;97669.39;;;20.68;34.88
72024;BME280;59889;50.700;5.440;2024-03-29T07:52:25;97678.34;;;20.65;34.92
72024;BME280;59889;50.700;5.440;2024-03-29T07:54:51;97670.71;;;20.53;35.06
72024;BME280;59889;50.700;5.440;2024-03-29T07:57:16;97664.06;;;20.57;35.03
72024;BME280;59889;50.700;5.440;2024-03-29T07:59:41;97666.98;;;20.63;34.95
72024;BME280;59889;50.700;5.440;2024-03-29T08:02:07;97675.46;;;20.53;35.06
72024;BME280;59889;50.700;5.440;2024-03-29T08:04:32;97682.34;;;20.31;35.06
72024;BME280;59889;50.700;5.440;2024-03-29T08:06:57;97679.70;;;20.73;34.83
72024;BME280;59889;50.700;5.440;2024-03-29T08:09:22;97690.44;;;20.74;34.83
72024;BME280;59889;50.700;5.440;2024-03-29T08:11:48;97692.86;;;20.60;35.02
72024;BME280;59889;50.700;5.440;2024-03-29T08:14:13;97691.25;;;20.60;35.03
72024;BME280;59889;50.700;5.440;2024-03-29T08:16:38;97695.15;;;20.64;34.98
72024;BME280;59889;50.700;5.440;2024-03-29T08:19:04;97696.34;;;20.60;35.05
72024;BME280;59889;50.700;5.440;2024-03-29T08:21:29;97709.91;;;20.53;35.16
72024;BME280;59889;50.700;5.440;2024-03-29T08:23:54;97709.66;;;20.75;34.90
72024;BME280;59889;50.700;5.440;2024-03-29T08:26:19;97705.86;;;20.76;34.90
72024;BME280;59889;50.700;5.440;2024-03-29T08:28:45;97697.95;;;20.70;34.99
72024;BME280;59889;50.700;5.440;2024-03-29T08:31:10;97703.05;;;20.79;34.90
72024;BME280;59889;50.700;5.440;2024-03-29T08:33:36;97703.73;;;20.77;35.01
72024;BME280;59889;50.700;5.440;2024-03-29T08:36:01;97699.80;;;20.73;35.03
72024;BME280;59889;50.700;5.440;2024-03-29T08:38:26;97698.24;;;20.77;35.00
72024;BME280;59889;50.700;5.440;2024-03-29T08:40:51;97714.74;;;20.73;35.07
72024;BME280;59889;50.700;5.440;2024-03-29T08:43:17;97725.05;;;20.79;35.03
72024;BME280;59889;50.700;5.440;2024-03-29T08:45:42;97725.06;;;20.82;35.06
72024;BME280;59889;50.700;5.440;2024-03-29T08:48:07;97719.42;;;20.79;35.10
72024;BME280;59889;50.700;5.440;2024-03-29T08:50:32;97723.68;;;20.77;35.11
72024;BME280;59889;50.700;5.440;2024-03-29T08:52:58;97716.32;;;20.77;35.14
72024;BME280;59889;50.700;5.440;2024-03-29T08:55:23;97716.54;;;20.75;35.20
72024;BME280;59889;50.700;5.440;2024-03-29T08:57:48;97719.42;;;20.96;35.22
72024;BME280;59889;50.700;5.440;2024-03-29T09:00:15;97716.67;;;20.79;35.16
72024;BME280;59889;50.700;5.440;2024-03-29T09:02:39;97709.83;;;20.68;35.29
72024;BME280;59889;50.700;5.440;2024-03-29T09:05:05;97714.76;;;20.66;35.33
72024;BME280;59889;50.700;5.440;2024-03-29T09:07:29;97720.48;;;20.76;35.19
72024;BME280;59889;50.700;5.440;2024-03-29T09:09:55;97720.74;;;20.81;35.18
72024;BME280;59889;50.700;5.440;2024-03-29T09:12:20;97720.35;;;20.86;35.04
72024;BME280;59889;50.700;5.440;2024-03-29T09:14:46;97728.30;;;20.89;35.08
72024;BME280;59889;50.700;5.440;2024-03-29T09:17:11;97737.63;;;20.49;35.26
72024;BME280;59889;50.700;5.440;2024-03-29T09:19:36;97748.68;;;20.79;35.21
72024;BME280;59889;50.700;5.440;2024-03-29T09:22:01;97752.26;;;20.56;35.21
72024;BME280;59889;50.700;5.440;2024-03-29T09:24:28;97762.98;;;20.87;35.14
72024;BME280;59889;50.700;5.440;2024-03-29T09:26:53;97770.71;;;20.87;35.16
72024;BME280;59889;50.700;5.440;2024-03-29T09:29:17;97765.89;;;20.79;35.25
72024;BME280;59889;50.700;5.440;2024-03-29T09:31:43;97772.06;;;20.71;35.36
72024;BME280;59889;50.700;5.440;2024-03-29T09:34:08;97769.85;;;20.70;35.36
72024;BME280;59889;50.700;5.440;2024-03-29T09:36:33;97782.00;;;20.55;35.26
72024;BME280;59889;50.700;5.440;2024-03-29T09:38:58;97784.68;;;20.84;35.20
72024;BME280;59889;50.700;5.440;2024-03-29T09:41:25;97786.47;;;21.16;35.08
72024;BME280;59889;50.700;5.440;2024-03-29T09:43:51;97786.69;;;20.71;35.37
72024;BME280;59889;50.700;5.440;2024-03-29T09:46:15;97788.83;;;20.66;35.47
72024;BME280;59889;50.700;5.440;2024-03-29T09:48:40;97795.59;;;20.76;35.32
72024;BME280;59889;50.700;5.440;2024-03-29T09:51:05;97800.71;;;20.90;35.18
72024;BME280;59889;50.700;5.440;2024-03-29T09:53:32;97798.13;;;20.41;35.23
72024;BME280;59889;50.700;5.440;2024-03-29T09:55:56;97796.09;;;20.80;35.27
72024;BME280;59889;50.700;5.440;2024-03-29T09:58:21;97788.36;;;20.78;35.32
72024;BME280;59889;50.700;5.440;2024-03-29T10:00:46;97795.69;;;20.86;35.22
72024;BME280;59889;50.700;5.440;2024-03-29T10:03:12;97795.09;;;21.06;35.33
72024;BME280;59889;50.700;5.440;2024-03-29T10:05:37;97792.11;;;20.67;35.28
72024;BME280;59889;50.700;5.440;2024-03-29T10:08:04;97783.35;;;20.88;35.27
72024;BME280;59889;50.700;5.440;2024-03-29T10:10:27;97784.56;;;20.95;35.15
72024;BME280;59889;50.700;5.440;2024-03-29T10:12:53;97792.68;;;20.91;35.24
72024;BME280;59889;50.700;5.440;2024-03-29T10:15:19;97792.66;;;20.97;35.18
72024;BME280;59889;50.700;5.440;2024-03-29T10:17:45;97801.42;;;20.70;35.24
72024;BME280;59889;50.700;5.440;2024-03-29T10:20:09;97803.21;;;20.72;35.21
72024;BME280;59889;50.700;5.440;2024-03-29T10:22:36;97806.59;;;20.98;35.19
72024;BME280;59889;50.700;5.440;2024-03-29T10:25:00;97812.80;;;20.62;35.37
72024;BME280;59889;50.700;5.440;2024-03-29T10:27:25;97802.58;;;20.99;35.29
72024;BME280;59889;50.700;5.440;2024-03-29T10:29:51;97799.17;;;21.03;35.31
72024;BME280;59889;50.700;5.440;2024-03-29T10:32:15;97799.55;;;20.97;35.42
72024;BME280;59889;50.700;5.440;2024-03-29T10:34:40;97800.48;;;21.02;35.42
72024;BME280;59889;50.700;5.440;2024-03-29T10:37:06;97799.13;;;21.04;35.35
72024;BME280;59889;50.700;5.440;2024-03-29T10:39:31;97792.00;;;20.98;35.45
72024;BME280;59889;50.700;5.440;2024-03-29T10:41:56;97801.20;;;20.80;35.36
72024;BME280;59889;50.700;5.440;2024-03-29T10:44:22;97795.61;;;20.76;35.43
72024;BME280;59889;50.700;5.440;2024-03-29T10:46:47;97797.15;;;21.04;35.35
72024;BME280;59889;50.700;5.440;2024-03-29T10:49:12;97806.92;;;20.98;35.39
72024;BME280;59889;50.700;5.440;2024-03-29T10:51:38;97815.57;;;20.97;35.42
72024;BME280;59889;50.700;5.440;2024-03-29T10:54:03;97829.61;;;20.74;35.41
72024;BME280;59889;50.700;5.440;2024-03-29T10:56:29;97817.81;;;21.11;35.23
72024;BME280;59889;50.700;5.440;2024-03-29T10:58:56;97815.33;;;21.05;35.32
72024;BME280;59889;50.700;5.440;2024-03-29T11:01:19;97816.14;;;21.04;35.29
72024;BME280;59889;50.700;5.440;2024-03-29T11:03:44;97818.94;;;21.24;35.36
72024;BME280;59889;50.700;5.440;2024-03-29T11:06:12;97809.73;;;21.01;35.35
72024;BME280;59889;50.700;5.440;2024-03-29T11:08:36;97796.07;;;20.79;35.30
72024;BME280;59889;50.700;5.440;2024-03-29T11:11:02;97795.52;;;20.94;35.46
72024;BME280;59889;50.700;5.440;2024-03-29T11:13:31;97802.92;;;20.94;35.44
72024;BME280;59889;50.700;5.440;2024-03-29T11:15:50;97817.02;;;20.98;35.36
72024;BME280;59889;50.700;5.440;2024-03-29T11:18:16;97832.23;;;20.93;35.43
72024;BME280;59889;50.700;5.440;2024-03-29T11:20:41;97837.63;;;20.99;35.38
72024;BME280;59889;50.700;5.440;2024-03-29T11:23:09;97841.06;;;20.93;35.39
72024;BME280;59889;50.700;5.440;2024-03-29T11:25:41;97852.24;;;20.41;35.51
72024;BME280;59889;50.700;5.440;2024-03-29T11:28:03;97850.37;;;20.89;35.50
72024;BME280;59889;50.700;5.440;2024-03-29T11:30:22;97853.18;;;21.01;35.33
72024;BME280;59889;50.700;5.440;2024-03-29T11:32:47;97859.09;;;20.90;35.46
72024;BME280;59889;50.700;5.440;2024-03-29T11:35:14;97869.21;;;20.87;35.50
72024;BME280;59889;50.700;5.440;2024-03-29T11:37:38;97869.51;;;20.66;35.44
72024;BME280;59889;50.700;5.440;2024-03-29T11:40:04;97867.05;;;20.89;35.46
72024;BME280;59889;50.700;5.440;2024-03-29T11:42:37;97861.76;;;20.96;35.39
72024;BME280;59889;50.700;5.440;2024-03-29T11:44:53;97872.93;;;20.94;35.43
72024;BME280;59889;50.700;5.440;2024-03-29T11:47:19;97865.23;;;20.98;35.41
72024;BME280;59889;50.700;5.440;2024-03-29T11:49:44;97864.79;;;20.94;35.46
72024;BME280;59889;50.700;5.440;2024-03-29T11:52:09;97863.04;;;21.04;35.31
72024;BME280;59889;50.700;5.440;2024-03-29T11:54:38;97868.43;;;20.93;35.45
72024;BME280;59889;50.700;5.440;2024-03-29T11:57:00;97882.43;;;20.77;35.39
72024;BME280;59889;50.700;5.440;2024-03-29T11:59:25;97893.49;;;21.12;35.57
72024;BME280;59889;50.700;5.440;2024-03-29T12:01:51;97894.94;;;20.69;35.57
72024;BME280;59889;50.700;5.440;2024-03-29T12:04:20;97888.56;;;20.99;35.45
72024;BME280;59889;50.700;5.440;2024-03-29T12:06:41;97892.53;;;21.09;35.28
72024;BME280;59889;50.700;5.440;2024-03-29T12:09:08;97892.87;;;20.53;35.46
72024;BME280;59889;50.700;5.440;2024-03-29T12:11:32;97879.52;;;20.52;35.43
72024;BME280;59889;50.700;5.440;2024-03-29T12:13:57;97868.72;;;21.10;35.31
72024;BME280;59889;50.700;5.440;2024-03-29T12:16:22;97866.75;;;20.97;35.22
72024;BME280;59889;50.700;5.440;2024-03-29T12:18:48;97874.60;;;20.83;35.35
72024;BME280;59889;50.700;5.440;2024-03-29T12:21:13;97873.96;;;21.14;35.27
72024;BME280;59889;50.700;5.440;2024-03-29T12:23:38;97882.18;;;21.23;35.18
72024;BME280;59889;50.700;5.440;2024-03-29T12:26:05;97871.13;;;21.13;35.31
72024;BME280;59889;50.700;5.440;2024-03-29T12:28:29;97865.84;;;21.13;35.31
72024;BME280;59889;50.700;5.440;2024-03-29T12:30:54;97864.30;;;20.89;35.24
72024;BME280;59889;50.700;5.440;2024-03-29T12:33:20;97861.36;;;21.07;35.34
72024;BME280;59889;50.700;5.440;2024-03-29T12:35:46;97864.51;;;20.97;35.18
72024;BME280;59889;50.700;5.440;2024-03-29T12:38:17;97857.13;;;21.25;35.13
72024;BME280;59889;50.700;5.440;2024-03-29T12:40:35;97869.23;;;21.16;35.25
72024;BME280;59889;50.700;5.440;2024-03-29T12:43:03;97879.27;;;20.96;35.20
72024;BME280;59889;50.700;5.440;2024-03-29T12:45:26;97878.71;;;21.22;35.18
72024;BME280;59889;50.700;5.440;2024-03-29T12:47:52;97876.70;;;21.12;35.29